Time;durP1;ratioP1;P1;durP2;ratioP2;P2;SDS_P1;SDS_P2;PMS_P1;PMS_P2;Temp;Humidity;BMP_temperature;BMP_pressure;BME280_temperature;BME280_humidity;BME280_pressure;Samples;Min_cycle;Max_cycle;Signal;HPM_P1;HPM_P2
2021/07/03 04:01:34;;;;;;;7.40;4.97;;;11.20;96.30;;;;;;5484511;22;20911;-78
2021/07/03 04:04:00;;;;;;;7.30;5.30;;;12.10;96.30;;;;;;4994331;28;20508;-78
2021/07/03 04:06:25;;;;;;;5.10;4.60;;;12.90;96.30;;;;;;4976660;28;20173;-78
2021/07/03 04:08:50;;;;;;;10.00;5.67;;;13.60;96.30;;;;;;4993543;28;20565;-78
2021/07/03 04:11:16;;;;;;;4.90;4.10;;;14.30;96.30;;;;;;5003160;28;20197;-76
2021/07/03 04:13:42;;;;;;;4.87;3.70;;;15.20;96.30;;;;;;5014348;28;20191;-76
2021/07/03 04:16:07;;;;;;;6.27;4.20;;;15.90;96.30;;;;;;5013790;28;20227;-75
2021/07/03 04:18:33;;;;;;;3.60;3.30;;;16.50;96.30;;;;;;5013217;28;20177;-75
2021/07/03 07:14:19;;;;;;;6.57;5.70;;;24.70;85.70;;;;;;5032458;28;20846;-79
2021/07/03 07:16:45;;;;;;;6.60;6.00;;;25.80;78.20;;;;;;5035417;28;20422;-79
2021/07/03 07:19:11;;;;;;;7.60;5.30;;;27.20;74.10;;;;;;5035565;28;20239;-79
2021/07/03 07:21:36;;;;;;;5.83;5.33;;;27.30;74.20;;;;;;5035738;28;20195;-78
2021/07/03 07:24:03;;;;;;;7.73;5.77;;;28.20;71.60;;;;;;5035527;28;20710;-80
2021/07/03 07:26:29;;;;;;;7.20;5.20;;;28.50;71.40;;;;;;5035774;28;20206;-79
2021/07/03 07:28:55;;;;;;;11.03;5.57;;;28.30;71.80;;;;;;5034841;28;20898;-79
2021/07/03 07:31:21;;;;;;;6.20;5.50;;;28.80;73.30;;;;;;5035782;28;20436;-79
2021/07/03 07:33:46;;;;;;;6.60;5.40;;;29.80;72.80;;;;;;5035991;28;20172;-79
2021/07/03 07:36:12;;;;;;;7.30;4.90;;;29.60;69.70;;;;;;5035194;28;20562;-79
2021/07/03 07:38:38;;;;;;;4.50;3.97;;;29.70;71.70;;;;;;5018087;28;20654;-78
2021/07/03 07:41:04;;;;;;;9.40;5.27;;;30.00;72.20;;;;;;5035458;28;20932;-79
2021/07/03 07:43:30;;;;;;;6.93;4.27;;;30.30;72.70;;;;;;5035201;28;20466;-79
2021/07/03 07:45:56;;;;;;;5.80;5.17;;;29.20;66.70;;;;;;5017614;28;20184;-79
2021/07/03 07:48:29;;;;;;;7.00;4.77;;;27.50;70.50;;;;;;5034791;28;20163;-79
2021/07/03 07:51:00;;;;;;;5.10;4.60;;;27.40;73.40;;;;;;5034280;28;20226;-77
2021/07/03 07:53:29;;;;;;;7.40;5.87;;;26.70;73.20;;;;;;5033724;28;20406;-77
2021/07/03 07:55:56;;;;;;;5.63;5.13;;;26.40;78.20;;;;;;5033766;28;20922;-79
2021/07/03 07:58:22;;;;;;;5.87;5.30;;;25.20;79.20;;;;;;5033169;28;20875;-76
2021/07/03 08:00:48;;;;;;;7.17;5.40;;;23.90;84.10;;;;;;5033554;28;20497;-77
2021/07/03 08:03:13;;;;;;;6.57;5.67;;;23.00;88.90;;;;;;5019675;28;20567;-77
2021/07/03 08:05:39;;;;;;;8.20;5.20;;;22.20;89.10;;;;;;5026997;28;20177;-76
2021/07/03 08:08:06;;;;;;;6.13;5.37;;;21.40;90.60;;;;;;5018909;28;20180;-75
2021/07/03 08:10:33;;;;;;;7.03;5.87;;;21.40;93.00;;;;;;5025175;28;20438;-76
2021/07/03 08:12:59;;;;;;;7.70;5.90;;;21.80;92.20;;;;;;5032438;28;20462;-74
2021/07/03 08:15:25;;;;;;;7.20;5.50;;;21.50;92.10;;;;;;5033634;28;20411;-76
2021/07/03 08:17:51;;;;;;;6.53;5.97;;;21.10;92.40;;;;;;5032768;28;20168;-77
2021/07/03 08:20:19;;;;;;;8.63;5.27;;;20.50;94.90;;;;;;5003203;28;20577;-77
2021/07/03 08:22:46;;;;;;;7.60;5.90;;;20.60;96.30;;;;;;4995986;28;20363;-78
2021/07/03 08:25:12;;;;;;;10.30;5.53;;;22.20;88.70;;;;;;5014279;28;20466;-77
2021/07/03 08:27:38;;;;;;;8.40;5.73;;;21.60;86.70;;;;;;5013435;28;20415;-77
2021/07/03 08:30:05;;;;;;;7.97;7.13;;;21.60;92.50;;;;;;5014125;28;20423;-78
2021/07/03 08:32:31;;;;;;;6.80;5.70;;;22.40;93.60;;;;;;5014130;28;20462;-79
2021/07/03 08:34:56;;;;;;;6.07;5.43;;;22.10;87.40;;;;;;5015492;28;20408;-80
2021/07/03 08:37:22;;;;;;;6.47;5.57;;;21.50;90.10;;;;;;5014726;28;20181;-78
2021/07/03 08:39:48;;;;;;;9.93;6.90;;;21.30;91.20;;;;;;4997338;28;20632;-79
2021/07/03 08:42:13;;;;;;;7.50;5.80;;;21.10;94.50;;;;;;5013271;28;20284;-78
2021/07/03 08:44:44;;;;;;;8.00;5.73;;;21.20;95.20;;;;;;5013225;28;20195;-78
2021/07/03 08:47:10;;;;;;;6.30;5.70;;;20.80;91.10;;;;;;4995010;28;20169;-77
2021/07/03 08:49:35;;;;;;;7.13;6.43;;;20.80;90.20;;;;;;5013131;28;20420;-81
2021/07/03 08:52:00;;;;;;;5.97;5.17;;;20.50;94.30;;;;;;5017433;28;20200;-79
2021/07/03 08:54:26;;;;;;;10.70;5.00;;;22.60;96.30;;;;;;4998392;28;20216;-80
2021/07/03 08:56:51;;;;;;;8.40;5.27;;;24.30;91.60;;;;;;5016765;28;20200;-80
2021/07/03 08:59:22;;;;;;;6.87;5.67;;;25.70;77.60;;;;;;4999076;28;20715;-79
2021/07/03 09:01:53;;;;;;;8.30;5.07;;;26.60;74.30;;;;;;4998929;28;20680;-80
2021/07/03 09:04:31;;;;;;;5.37;4.87;;;25.90;78.20;;;;;;5015913;28;20444;-82
2021/07/03 09:06:56;;;;;;;6.87;4.93;;;26.20;74.40;;;;;;4997828;28;20474;-80
2021/07/03 09:09:25;;;;;;;9.20;4.93;;;26.80;84.80;;;;;;5017408;28;20411;-80
2021/07/03 09:11:54;;;;;;;8.73;4.90;;;26.00;80.20;;;;;;4999922;28;20211;-79
2021/07/03 09:14:27;;;;;;;14.60;6.37;;;26.40;75.40;;;;;;5017810;28;20490;-80
2021/07/03 09:16:57;;;;;;;6.10;5.47;;;27.20;78.80;;;;;;5005461;28;20406;-81
2021/07/03 09:19:29;;;;;;;9.03;5.50;;;28.10;77.20;;;;;;5020009;28;20557;-81
2021/07/03 09:21:56;;;;;;;7.50;5.40;;;28.70;76.30;;;;;;5025815;28;20481;-81
2021/07/03 09:24:22;;;;;;;5.53;5.00;;;28.00;76.90;;;;;;5047919;28;20414;-82
2021/07/03 09:26:59;;;;;;;7.77;5.20;;;27.00;77.30;;;;;;5029803;28;20414;-81
2021/07/03 09:29:24;;;;;;;10.23;6.20;;;25.20;77.10;;;;;;5036194;28;20175;-79
2021/07/03 09:31:50;;;;;;;6.40;5.80;;;23.70;81.40;;;;;;5034167;28;20435;-85
2021/07/03 09:34:15;;;;;;;9.80;5.40;;;22.40;85.90;;;;;;5020630;28;20185;-83
2021/07/03 09:36:41;;;;;;;7.30;4.70;;;21.80;90.10;;;;;;5028354;28;20256;-83
2021/07/03 09:39:06;;;;;;;7.27;5.53;;;21.60;90.70;;;;;;5018074;28;20169;-84
2021/07/03 09:41:36;;;;;;;6.07;5.27;;;21.40;90.60;;;;;;5019058;28;20189;-84
2021/07/03 09:44:07;;;;;;;5.97;5.37;;;21.20;90.90;;;;;;5027016;28;20177;-83
2021/07/03 09:46:46;;;;;;;8.00;5.00;;;21.20;92.00;;;;;;5009387;28;20424;-82
2021/07/03 09:49:14;;;;;;;10.10;5.70;;;21.50;93.10;;;;;;5026341;28;20804;-83
2021/07/03 09:51:45;;;;;;;9.57;5.13;;;21.90;92.60;;;;;;5001490;28;20447;-83
2021/07/03 09:54:12;;;;;;;8.03;5.73;;;22.70;93.40;;;;;;5016354;28;20423;-82
2021/07/03 09:56:40;;;;;;;4.70;4.07;;;24.10;91.60;;;;;;5036156;28;20403;-84
2021/07/03 09:59:05;;;;;;;5.00;4.50;;;24.90;87.40;;;;;;5019633;28;20415;-82
2021/07/03 10:01:31;;;;;;;4.87;4.30;;;25.50;78.80;;;;;;5023138;28;20454;-83
2021/07/03 10:04:00;;;;;;;6.47;4.97;;;25.50;78.70;;;;;;5025551;28;20201;-83
2021/07/03 10:06:41;;;;;;;6.27;4.83;;;25.20;83.50;;;;;;5007199;28;20819;-82
2021/07/03 10:09:28;;;;;;;6.50;4.73;;;25.60;78.80;;;;;;5015150;28;20468;-83
2021/07/03 10:11:58;;;;;;;6.63;4.10;;;25.70;74.00;;;;;;4995773;28;20533;-82
2021/07/03 10:14:24;;;;;;;7.33;4.00;;;26.10;76.40;;;;;;5017495;28;20760;-82
2021/07/03 10:17:03;;;;;;;5.33;4.50;;;25.40;71.50;;;;;;5032638;28;20968;-79
2021/07/03 10:19:46;;;;;;;6.67;5.07;;;25.20;75.80;;;;;;5014941;28;20172;-78
2021/07/03 10:22:16;;;;;;;6.87;4.60;;;25.10;83.80;;;;;;5031994;28;20529;-79
2021/07/03 10:24:51;;;;;;;6.97;4.47;;;24.80;79.80;;;;;;5032387;28;20926;-78
2021/07/03 10:27:20;;;;;;;8.50;4.83;;;23.90;80.40;;;;;;5031809;28;20391;-79
2021/07/03 10:29:47;;;;;;;7.87;4.20;;;24.60;82.10;;;;;;5014957;28;20406;-78
2021/07/03 10:32:32;;;;;;;4.70;4.20;;;25.00;84.60;;;;;;5032195;28;20430;-79
2021/07/03 10:35:22;;;;;;;8.27;4.87;;;25.90;83.10;;;;;;5033784;28;20770;-78
2021/07/03 10:37:48;;;;;;;6.20;4.90;;;25.80;75.70;;;;;;5034613;28;20413;-77
2021/07/03 10:40:18;;;;;;;7.70;4.10;;;25.80;76.00;;;;;;5034665;28;20903;-78
2021/07/03 10:42:44;;;;;;;6.00;3.60;;;25.50;82.50;;;;;;5034901;28;20195;-76
2021/07/03 10:45:24;;;;;;;6.73;4.37;;;25.30;78.80;;;;;;5017661;28;20408;-77
2021/07/03 10:47:54;;;;;;;8.17;5.00;;;24.90;76.90;;;;;;4995043;28;20185;-78
2021/07/03 10:50:26;;;;;;;5.47;4.77;;;23.60;80.50;;;;;;4996352;28;20923;-78
2021/07/03 10:52:53;;;;;;;6.93;4.10;;;22.50;80.30;;;;;;5033170;28;20957;-78
2021/07/03 10:55:34;;;;;;;6.07;4.20;;;23.20;80.90;;;;;;5034591;28;20416;-77
2021/07/03 10:58:11;;;;;;;5.27;4.23;;;24.30;79.80;;;;;;5034294;28;20468;-78
2021/07/03 11:00:36;;;;;;;5.47;3.93;;;24.10;84.20;;;;;;5017202;28;20422;-79
2021/07/03 11:03:12;;;;;;;4.90;4.33;;;24.90;83.20;;;;;;5034701;28;20532;-79
2021/07/03 11:05:38;;;;;;;6.63;5.30;;;24.90;75.80;;;;;;5034781;28;20156;-79
2021/07/03 11:08:11;;;;;;;4.50;3.87;;;24.20;78.30;;;;;;5034011;28;20817;-78
2021/07/03 11:10:38;;;;;;;4.30;3.90;;;23.50;81.20;;;;;;5034474;28;20160;-79
2021/07/03 11:13:04;;;;;;;4.83;3.90;;;23.90;76.10;;;;;;5034307;28;20825;-78
2021/07/03 11:15:30;;;;;;;4.87;3.50;;;25.10;81.20;;;;;;5016737;28;20462;-78
2021/07/03 11:17:57;;;;;;;3.30;3.10;;;26.10;82.20;;;;;;5033997;28;20180;-79
2021/07/03 11:20:23;;;;;;;3.50;3.20;;;26.70;73.40;;;;;;5035012;28;20172;-78
2021/07/03 11:22:50;;;;;;;3.63;3.23;;;26.60;73.90;;;;;;5034759;28;20458;-79
2021/07/03 11:25:33;;;;;;;4.90;4.40;;;25.60;76.80;;;;;;5034557;28;20929;-79
2021/07/03 11:28:27;;;;;;;4.30;3.90;;;24.20;76.40;;;;;;5034331;28;20502;-78
2021/07/03 11:31:01;;;;;;;5.23;3.57;;;24.30;83.70;;;;;;5035450;28;20415;-79
2021/07/03 11:33:31;;;;;;;8.00;4.10;;;25.50;79.20;;;;;;5035594;28;20415;-78
2021/07/03 11:35:57;;;;;;;5.87;3.67;;;25.70;79.50;;;;;;5014695;28;20465;-78
2021/07/03 11:38:24;;;;;;;4.00;3.57;;;25.60;74.00;;;;;;5034064;28;20450;-79
2021/07/03 11:40:59;;;;;;;4.90;3.90;;;26.10;79.90;;;;;;5034597;28;20411;-79
2021/07/03 11:43:25;;;;;;;4.37;3.90;;;26.50;79.80;;;;;;5034549;28;20492;-79
2021/07/03 11:45:54;;;;;;;4.43;3.43;;;27.20;75.10;;;;;;5016973;28;20407;-79
2021/07/03 11:48:25;;;;;;;6.03;3.60;;;27.30;74.10;;;;;;5034762;28;20430;-79
2021/07/03 11:51:01;;;;;;;5.30;3.50;;;27.00;77.00;;;;;;5035091;28;20411;-78
2021/07/03 11:53:28;;;;;;;5.27;3.03;;;25.60;75.10;;;;;;5035097;28;20509;-79
2021/07/03 11:55:57;;;;;;;6.70;3.33;;;24.50;80.40;;;;;;5034052;28;20442;-79
2021/07/03 11:58:34;;;;;;;3.10;2.80;;;25.00;87.20;;;;;;5033401;28;20457;-79
2021/07/03 12:01:02;;;;;;;9.70;3.13;;;24.90;80.30;;;;;;5034094;28;20471;-78
2021/07/03 12:03:31;;;;;;;4.60;3.60;;;24.50;79.40;;;;;;5016061;28;20807;-78
2021/07/03 12:05:58;;;;;;;5.80;3.63;;;24.00;82.90;;;;;;5034000;28;20503;-78
2021/07/03 12:08:33;;;;;;;5.90;3.80;;;24.20;84.00;;;;;;5033282;28;20865;-78
2021/07/03 12:11:02;;;;;;;3.70;3.20;;;24.10;81.00;;;;;;5038105;28;20426;-80
2021/07/03 12:13:30;;;;;;;7.43;3.73;;;23.60;81.40;;;;;;5016163;28;20935;-79
2021/07/03 12:15:58;;;;;;;5.00;3.30;;;23.00;81.70;;;;;;5033503;28;20403;-78
2021/07/03 12:18:31;;;;;;;6.30;3.60;;;22.40;85.30;;;;;;5032698;28;20411;-78
2021/07/03 12:21:08;;;;;;;9.83;3.40;;;22.30;90.80;;;;;;5033421;28;20461;-79
2021/07/03 12:23:35;;;;;;;11.70;3.83;;;22.60;86.20;;;;;;5015734;28;20821;-78
2021/07/03 12:26:03;;;;;;;7.63;3.67;;;23.10;86.40;;;;;;5034435;28;20915;-80
2021/07/03 12:28:29;;;;;;;8.07;3.70;;;23.10;84.30;;;;;;5035139;28;20439;-79
2021/07/03 12:31:04;;;;;;;4.60;3.40;;;23.20;88.70;;;;;;5032076;28;20492;-80
2021/07/03 12:33:30;;;;;;;3.90;3.00;;;23.00;81.00;;;;;;4994484;28;20160;-78
2021/07/03 12:35:55;;;;;;;9.33;3.70;;;22.90;85.30;;;;;;4994184;28;20413;-79
2021/07/03 12:38:25;;;;;;;5.20;4.70;;;22.80;83.40;;;;;;4993269;28;20633;-78
2021/07/03 12:40:51;;;;;;;3.30;3.00;;;23.00;87.10;;;;;;4995124;28;20208;-78
2021/07/03 12:43:17;;;;;;;2.77;2.57;;;23.30;80.80;;;;;;4993503;28;20460;-78
2021/07/03 12:45:44;;;;;;;4.53;3.00;;;22.90;79.60;;;;;;4993841;28;20538;-78
2021/07/03 12:48:14;;;;;;;4.57;3.47;;;23.40;84.40;;;;;;4993115;28;20409;-78
2021/07/03 12:50:45;;;;;;;3.90;2.50;;;23.70;79.70;;;;;;4993997;28;20806;-79
2021/07/03 12:53:13;;;;;;;2.93;2.73;;;23.60;80.80;;;;;;4976803;28;20806;-80
2021/07/03 12:55:44;;;;;;;2.93;2.73;;;23.00;83.60;;;;;;4981155;28;21024;-78
2021/07/03 12:58:20;;;;;;;7.63;3.53;;;22.80;83.70;;;;;;5013332;28;20729;-78
2021/07/03 13:00:47;;;;;;;3.57;2.57;;;23.20;84.50;;;;;;5032280;28;20454;-77
2021/07/03 13:03:13;;;;;;;4.07;3.40;;;23.30;80.00;;;;;;5032487;28;20455;-78
2021/07/03 13:05:38;;;;;;;4.37;3.73;;;23.30;80.40;;;;;;5033615;28;20418;-78
2021/07/03 13:08:04;;;;;;;3.60;2.90;;;23.00;84.50;;;;;;5033299;28;20411;-78
2021/07/03 13:10:30;;;;;;;3.47;2.90;;;22.80;82.20;;;;;;5032787;28;20171;-78
2021/07/03 13:12:58;;;;;;;6.03;2.80;;;23.00;85.60;;;;;;5032169;28;20458;-77
2021/07/03 13:15:24;;;;;;;3.20;2.90;;;23.30;80.10;;;;;;5032075;28;20648;-78
2021/07/03 13:17:49;;;;;;;3.67;2.70;;;23.10;82.00;;;;;;5013630;28;20509;-79
2021/07/03 13:20:15;;;;;;;5.87;2.80;;;23.30;85.40;;;;;;5014403;28;20180;-79
2021/07/03 13:22:40;;;;;;;3.03;2.77;;;24.10;88.40;;;;;;5031997;28;20204;-78
2021/07/03 13:25:06;;;;;;;3.10;2.20;;;24.50;81.50;;;;;;5032224;28;20169;-78
2021/07/03 13:27:32;;;;;;;3.70;2.80;;;24.80;79.90;;;;;;5031696;28;20653;-78
2021/07/03 13:29:57;;;;;;;2.30;2.10;;;24.50;76.90;;;;;;5032053;28;20414;-79
2021/07/03 13:32:23;;;;;;;4.30;2.60;;;24.70;80.40;;;;;;5032490;28;20199;-78
2021/07/03 13:34:48;;;;;;;5.80;2.70;;;24.70;75.90;;;;;;5021062;28;20249;-79
2021/07/03 13:37:14;;;;;;;3.07;2.73;;;24.60;78.60;;;;;;5039526;28;20203;-79
2021/07/03 13:39:39;;;;;;;2.37;2.17;;;25.30;77.30;;;;;;5038196;28;20589;-78
2021/07/03 13:42:05;;;;;;;4.37;3.03;;;25.90;76.30;;;;;;5039329;28;20934;-79
2021/07/03 13:44:30;;;;;;;6.10;2.87;;;26.30;78.50;;;;;;5021024;28;20183;-77
2021/07/03 13:46:56;;;;;;;3.10;2.90;;;25.70;79.00;;;;;;5042019;28;20176;-79
2021/07/03 13:49:21;;;;;;;4.90;2.57;;;25.80;78.00;;;;;;5023818;28;20201;-79
2021/07/03 13:51:47;;;;;;;3.37;2.90;;;25.80;75.90;;;;;;5043214;28;20198;-79
2021/07/03 13:54:12;;;;;;;2.90;2.60;;;25.90;77.50;;;;;;5041131;28;20182;-79
2021/07/03 13:56:38;;;;;;;4.40;2.73;;;25.80;77.50;;;;;;5016014;28;20536;-78
2021/07/03 13:59:03;;;;;;;2.87;2.60;;;25.10;78.70;;;;;;5012220;28;20206;-78
2021/07/03 14:01:29;;;;;;;3.10;2.80;;;25.40;77.40;;;;;;5029852;28;20249;-79
2021/07/03 14:03:56;;;;;;;2.87;2.60;;;25.90;77.40;;;;;;5011310;28;20341;-80
2021/07/03 14:06:22;;;;;;;4.00;2.77;;;26.30;77.80;;;;;;5018990;28;20664;-79
2021/07/03 14:08:47;;;;;;;3.87;2.73;;;26.60;73.20;;;;;;5031243;28;20398;-79
2021/07/03 14:11:13;;;;;;;2.93;2.73;;;26.60;73.70;;;;;;5018940;28;20247;-80
2021/07/03 14:13:38;;;;;;;2.60;2.37;;;26.50;77.10;;;;;;5029559;28;20187;-80
2021/07/03 14:16:04;;;;;;;2.77;2.47;;;26.20;72.70;;;;;;5019141;28;20642;-80
2021/07/03 14:18:30;;;;;;;2.90;2.40;;;26.10;75.80;;;;;;5034123;28;20528;-79
2021/07/03 14:20:55;;;;;;;2.80;2.43;;;26.20;73.50;;;;;;5035136;28;20263;-78
2021/07/03 14:23:21;;;;;;;5.03;2.70;;;26.30;74.00;;;;;;5035273;28;20243;-79
2021/07/03 14:25:46;;;;;;;2.70;2.50;;;26.60;76.20;;;;;;5017538;28;20179;-79
2021/07/03 14:28:12;;;;;;;3.23;2.67;;;26.70;74.70;;;;;;5017366;28;20620;-80
2021/07/03 14:30:37;;;;;;;3.00;2.80;;;26.80;75.00;;;;;;5035583;28;20226;-79
2021/07/03 14:33:04;;;;;;;3.63;2.47;;;26.90;74.30;;;;;;5017811;28;20246;-79
2021/07/03 14:35:29;;;;;;;2.90;2.70;;;27.00;72.50;;;;;;5029788;28;20180;-81
2021/07/03 14:37:55;;;;;;;3.53;2.83;;;26.60;70.90;;;;;;5015361;28;20418;-80
2021/07/03 14:40:20;;;;;;;4.53;2.87;;;26.10;70.80;;;;;;5015889;28;20200;-79
2021/07/03 14:42:47;;;;;;;6.37;2.67;;;26.00;71.50;;;;;;5022460;28;20220;-79
2021/07/03 14:45:12;;;;;;;4.20;2.60;;;25.70;75.40;;;;;;5035854;28;20172;-80
2021/07/03 14:47:38;;;;;;;4.20;2.37;;;25.90;76.80;;;;;;5035535;28;20417;-80
2021/07/03 14:50:04;;;;;;;3.27;2.80;;;26.10;75.10;;;;;;5035751;28;20172;-79
2021/07/03 14:52:30;;;;;;;3.90;2.70;;;26.30;75.00;;;;;;5036288;28;20208;-81
2021/07/03 14:54:55;;;;;;;6.60;3.67;;;26.60;73.30;;;;;;5042057;28;20417;-80
2021/07/03 14:57:21;;;;;;;14.83;6.70;;;26.80;73.90;;;;;;5025416;28;20215;-80
2021/07/03 14:59:46;;;;;;;8.27;4.37;;;26.50;73.30;;;;;;5043140;28;20193;-80
2021/07/03 15:02:12;;;;;;;3.97;3.20;;;25.50;73.20;;;;;;5042660;28;20204;-80
2021/07/03 15:04:37;;;;;;;3.77;3.47;;;24.80;76.00;;;;;;5040948;28;20191;-80
2021/07/03 15:07:03;;;;;;;4.67;3.77;;;24.50;76.60;;;;;;5024695;28;20176;-80
2021/07/03 15:09:29;;;;;;;2.70;2.50;;;24.40;76.30;;;;;;5023573;28;20177;-81
2021/07/03 15:11:54;;;;;;;6.20;2.77;;;24.30;75.80;;;;;;5020501;28;20361;-80
2021/07/03 15:14:20;;;;;;;3.63;2.90;;;24.50;76.10;;;;;;5040747;28;20187;-80
2021/07/03 15:16:45;;;;;;;2.73;2.53;;;24.90;80.50;;;;;;5041224;28;20198;-81
2021/07/03 15:19:11;;;;;;;2.70;2.50;;;24.60;74.30;;;;;;5042377;28;20172;-81
2021/07/03 15:21:36;;;;;;;3.13;2.90;;;24.50;77.40;;;;;;5041307;28;20644;-80
2021/07/03 15:24:02;;;;;;;3.17;2.70;;;24.00;75.80;;;;;;5042044;28;20214;-80
2021/07/03 15:26:28;;;;;;;3.83;2.53;;;23.40;80.40;;;;;;5041672;28;20616;-81
2021/07/03 15:28:53;;;;;;;3.13;2.90;;;23.00;82.00;;;;;;5040777;28;20176;-80
2021/07/03 15:31:20;;;;;;;3.50;3.20;;;22.60;82.60;;;;;;5041152;28;20215;-80
2021/07/03 15:33:45;;;;;;;3.00;2.70;;;22.40;82.80;;;;;;5041832;28;20188;-81
2021/07/03 15:36:11;;;;;;;3.17;2.87;;;22.20;87.30;;;;;;5041654;28;20482;-80
2021/07/03 15:38:37;;;;;;;4.33;3.03;;;22.30;85.60;;;;;;5041383;28;20184;-80
2021/07/03 15:41:04;;;;;;;2.90;2.57;;;22.80;84.90;;;;;;5041993;28;20259;-80
2021/07/03 15:43:30;;;;;;;3.53;2.87;;;23.60;85.20;;;;;;5043579;28;20672;-80
2021/07/03 15:45:56;;;;;;;3.17;2.87;;;23.50;80.60;;;;;;5044290;28;20501;-81
2021/07/03 15:48:22;;;;;;;4.47;2.70;;;23.40;83.30;;;;;;5024915;28;20459;-80
2021/07/03 15:50:48;;;;;;;4.07;2.93;;;23.30;82.80;;;;;;5042256;28;20188;-80
2021/07/03 15:53:13;;;;;;;5.80;2.50;;;23.50;81.40;;;;;;5043286;28;20212;-80
2021/07/03 15:55:39;;;;;;;5.80;3.00;;;23.20;81.30;;;;;;5024193;28;20179;-80
2021/07/03 15:58:05;;;;;;;3.13;2.83;;;23.00;82.90;;;;;;5038453;28;20191;-81
2021/07/03 16:00:30;;;;;;;3.07;2.77;;;23.10;85.80;;;;;;5009695;28;20177;-80
2021/07/03 16:02:56;;;;;;;8.70;3.00;;;23.30;86.00;;;;;;5005633;28;20524;-82
2021/07/03 16:05:22;;;;;;;7.50;3.07;;;23.20;82.10;;;;;;5015965;28;20177;-79
2021/07/03 16:07:49;;;;;;;10.23;3.37;;;22.80;85.10;;;;;;5014665;28;20173;-79
2021/07/03 16:10:15;;;;;;;4.40;2.93;;;22.80;86.40;;;;;;5016259;28;20403;-81
2021/07/03 16:12:41;;;;;;;5.30;2.93;;;22.70;85.40;;;;;;5025566;28;20493;-79
2021/07/03 16:15:07;;;;;;;2.70;2.50;;;22.80;85.20;;;;;;5020061;28;20185;-80
2021/07/03 16:17:33;;;;;;;5.23;2.90;;;22.70;87.30;;;;;;5013997;28;20192;-80
2021/07/03 16:20:00;;;;;;;5.83;2.87;;;22.60;87.70;;;;;;5010889;28;20423;-79
2021/07/03 16:22:27;;;;;;;3.63;3.03;;;22.60;89.30;;;;;;5018205;28;20247;-79
2021/07/03 16:24:54;;;;;;;4.00;3.03;;;23.10;88.80;;;;;;5002534;28;20450;-81
2021/07/03 16:27:34;;;;;;;3.23;2.90;;;23.40;85.20;;;;;;4989240;28;20435;-80
2021/07/03 16:30:00;;;;;;;4.50;3.33;;;23.30;84.30;;;;;;5012350;28;20795;-81
2021/07/03 16:32:26;;;;;;;3.13;2.93;;;23.50;85.10;;;;;;4998329;28;20236;-80
2021/07/03 16:34:52;;;;;;;2.80;2.60;;;23.70;82.50;;;;;;5004390;28;20177;-81
2021/07/03 16:37:18;;;;;;;2.90;2.67;;;24.00;82.30;;;;;;4994752;28;20437;-80
2021/07/03 16:39:43;;;;;;;3.97;2.70;;;23.90;79.70;;;;;;5008698;28;20189;-81
2021/07/03 16:42:09;;;;;;;3.90;2.40;;;24.00;78.80;;;;;;4990620;28;20192;-80
2021/07/03 16:44:35;;;;;;;4.67;2.87;;;24.00;79.50;;;;;;5001199;28;20657;-82
2021/07/03 16:47:00;;;;;;;3.00;2.73;;;24.00;80.80;;;;;;5021636;28;20172;-81
2021/07/03 16:49:25;;;;;;;2.93;2.40;;;24.20;76.20;;;;;;5018101;28;20204;-82
2021/07/03 16:51:51;;;;;;;2.50;2.30;;;24.20;77.00;;;;;;5022020;28;20200;-81
2021/07/03 16:54:17;;;;;;;2.73;2.30;;;23.90;74.90;;;;;;5006019;28;20267;-80
2021/07/03 16:56:42;;;;;;;2.30;2.20;;;23.80;74.80;;;;;;5004174;28;20645;-80
2021/07/03 16:59:08;;;;;;;2.53;2.27;;;23.80;77.00;;;;;;5005372;28;20181;-80
2021/07/03 17:01:33;;;;;;;3.10;2.57;;;23.90;76.40;;;;;;5010541;28;20197;-80
2021/07/03 17:03:59;;;;;;;4.20;2.40;;;23.90;80.80;;;;;;5020537;28;20601;-80
2021/07/03 17:06:27;;;;;;;2.97;2.67;;;23.90;80.30;;;;;;5006572;28;20168;-80
2021/07/03 17:08:52;;;;;;;3.17;2.97;;;23.40;81.80;;;;;;5026266;28;20172;-80
2021/07/03 17:11:18;;;;;;;4.73;2.77;;;23.20;80.30;;;;;;5029490;28;20436;-80
2021/07/03 17:13:44;;;;;;;2.93;2.60;;;22.80;80.10;;;;;;5029935;28;20838;-80
2021/07/03 17:16:09;;;;;;;3.17;2.87;;;22.70;79.10;;;;;;5024331;28;20657;-80
2021/07/03 17:18:35;;;;;;;2.70;2.50;;;22.70;79.50;;;;;;5040536;28;20252;-80
2021/07/03 17:21:02;;;;;;;3.30;3.00;;;22.70;82.10;;;;;;5045443;28;20187;-81
2021/07/03 17:23:27;;;;;;;3.53;3.23;;;22.70;84.70;;;;;;5042436;28;20192;-81
2021/07/03 17:25:53;;;;;;;3.53;2.73;;;22.60;86.70;;;;;;5024955;28;20498;-80
2021/07/03 17:28:18;;;;;;;4.60;3.50;;;22.40;85.30;;;;;;5023429;28;20173;-81
2021/07/03 17:30:44;;;;;;;5.47;3.07;;;22.30;85.70;;;;;;5042010;28;20531;-81
2021/07/03 17:33:09;;;;;;;4.63;2.90;;;22.30;84.50;;;;;;5043893;28;20200;-80
2021/07/03 17:35:35;;;;;;;3.77;2.43;;;22.30;88.40;;;;;;5043740;28;20852;-80
2021/07/03 17:38:01;;;;;;;3.23;2.93;;;22.50;84.40;;;;;;5024334;28;20198;-81
2021/07/03 17:40:26;;;;;;;4.90;2.83;;;22.60;84.40;;;;;;5038371;28;20258;-83
2021/07/03 17:42:52;;;;;;;5.97;2.80;;;22.50;87.20;;;;;;5017938;28;20569;-81
2021/07/03 17:45:17;;;;;;;5.00;3.17;;;22.40;85.90;;;;;;5039600;28;20179;-81
2021/07/03 17:47:43;;;;;;;3.37;2.83;;;22.20;86.60;;;;;;5016570;28;20250;-81
2021/07/03 17:50:10;;;;;;;3.43;3.00;;;22.10;86.80;;;;;;5021224;28;20173;-81
2021/07/03 17:52:36;;;;;;;3.27;2.60;;;22.10;88.90;;;;;;5023931;28;20706;-81
2021/07/03 17:55:02;;;;;;;2.77;2.57;;;22.20;89.10;;;;;;5017572;28;20436;-81
2021/07/03 17:57:27;;;;;;;4.60;3.00;;;22.20;90.00;;;;;;5019947;28;20177;-80
2021/07/03 17:59:53;;;;;;;4.37;3.00;;;22.20;89.30;;;;;;5021405;28;20414;-81
2021/07/03 18:02:18;;;;;;;4.53;3.13;;;22.10;91.70;;;;;;5003954;28;20228;-80
2021/07/03 18:04:44;;;;;;;3.50;2.63;;;22.10;92.30;;;;;;5008289;28;20641;-81
2021/07/03 18:07:09;;;;;;;3.20;2.90;;;21.90;92.90;;;;;;5023256;28;20180;-80
2021/07/03 18:09:36;;;;;;;3.90;2.30;;;21.80;94.00;;;;;;5024974;28;20182;-81
2021/07/03 18:12:02;;;;;;;2.87;2.57;;;21.60;94.50;;;;;;5020902;28;20195;-81
2021/07/03 18:14:29;;;;;;;5.10;3.03;;;21.40;95.10;;;;;;5033886;28;20447;-82
2021/07/03 18:16:54;;;;;;;3.20;2.90;;;21.30;96.30;;;;;;5018715;28;20416;-82
2021/07/03 18:19:20;;;;;;;5.00;3.03;;;21.10;96.20;;;;;;5001021;28;20507;-81
2021/07/03 18:21:46;;;;;;;3.10;2.67;;;20.90;96.30;;;;;;5024810;28;20200;-81
2021/07/03 18:24:12;;;;;;;4.33;2.63;;;20.70;96.30;;;;;;5024144;28;20564;-82
2021/07/03 18:26:38;;;;;;;5.13;2.83;;;20.50;96.30;;;;;;5014787;28;20543;-81
2021/07/03 18:29:03;;;;;;;4.07;2.70;;;20.30;96.30;;;;;;5030755;28;20415;-80
2021/07/03 18:31:29;;;;;;;3.30;2.70;;;20.00;96.00;;;;;;5033470;28;21183;-81
2021/07/03 18:33:54;;;;;;;3.67;2.77;;;19.90;96.30;;;;;;5034411;28;20180;-80
2021/07/03 18:36:20;;;;;;;7.50;3.57;;;19.70;96.30;;;;;;5016638;28;20226;-80
2021/07/03 18:38:46;;;;;;;2.63;2.43;;;19.50;96.30;;;;;;5033473;28;20738;-80
2021/07/03 18:41:12;;;;;;;4.50;2.80;;;19.30;96.30;;;;;;5014278;28;20260;-81
2021/07/03 18:43:37;;;;;;;2.70;2.50;;;19.10;96.30;;;;;;4996368;28;20497;-81
2021/07/03 18:46:04;;;;;;;3.03;2.67;;;18.80;96.30;;;;;;5013955;28;20244;-81
2021/07/03 18:48:29;;;;;;;3.07;2.87;;;18.60;96.30;;;;;;4995048;28;20177;-80
2021/07/03 18:50:55;;;;;;;3.90;2.80;;;18.40;96.30;;;;;;4995686;28;20424;-81
2021/07/03 18:53:21;;;;;;;5.73;2.70;;;18.20;96.30;;;;;;5012401;28;20287;-81
2021/07/03 18:55:47;;;;;;;3.23;2.70;;;18.00;96.30;;;;;;5006650;28;20191;-81
2021/07/03 18:58:16;;;;;;;3.90;2.60;;;17.80;96.30;;;;;;4996627;28;20189;-81
2021/07/03 19:00:42;;;;;;;3.77;2.67;;;17.60;96.30;;;;;;5000693;28;20233;-80
2021/07/03 19:03:07;;;;;;;4.67;3.00;;;17.50;96.30;;;;;;5015162;28;20873;-80
2021/07/03 19:05:33;;;;;;;4.37;2.93;;;17.30;96.30;;;;;;5006434;28;20177;-81
2021/07/03 19:07:59;;;;;;;4.97;3.60;;;17.20;96.30;;;;;;5015902;28;20224;-81
2021/07/03 19:10:25;;;;;;;10.63;8.50;;;17.00;96.30;;;;;;4997971;28;20428;-81
2021/07/03 19:12:52;;;;;;;24.00;13.80;;;16.80;96.30;;;;;;5016274;28;20212;-81
2021/07/03 19:15:18;;;;;;;23.20;12.30;;;16.70;96.30;;;;;;5003553;28;20178;-80
2021/07/03 19:17:48;;;;;;;13.43;9.50;;;16.60;96.30;;;;;;4996705;28;20437;-80
2021/07/03 19:20:15;;;;;;;12.83;11.30;;;16.50;96.30;;;;;;5002407;28;20428;-83
2021/07/03 19:22:41;;;;;;;10.67;8.10;;;16.30;96.30;;;;;;5015105;28;20991;-80
2021/07/03 19:25:09;;;;;;;7.50;6.80;;;16.20;96.30;;;;;;5038037;28;20502;-80
2021/07/03 19:27:34;;;;;;;7.63;5.40;;;16.10;96.30;;;;;;5039935;28;20415;-79
2021/07/03 19:30:00;;;;;;;5.73;4.80;;;16.00;96.30;;;;;;5037940;28;20411;-80
2021/07/03 19:32:26;;;;;;;5.77;5.10;;;15.90;96.30;;;;;;5038101;28;20204;-79
2021/07/03 19:34:52;;;;;;;5.00;3.60;;;15.70;96.30;;;;;;5038001;28;20182;-79
2021/07/03 19:37:17;;;;;;;3.73;2.90;;;15.60;96.30;;;;;;5019812;28;20482;-79
2021/07/03 19:39:43;;;;;;;4.27;3.13;;;15.40;96.30;;;;;;5037564;28;20247;-79